Time;durP1;ratioP1;P1;durP2;ratioP2;P2;SDS_P1;SDS_P2;PMS_P1;PMS_P2;Temp;Humidity;BMP_temperature;BMP_pressure;BME280_temperature;BME280_humidity;BME280_pressure;Samples;Min_cycle;Max_cycle;Signal;HPM_P1;HPM_P2
2023/01/28 00:02:05;;;;;;;;;;;2.00;99.90;;;;;;5011034;28;19941;-72
2023/01/28 00:04:31;;;;;;;;;;;2.00;99.90;;;;;;5013125;28;19925;-72
2023/01/28 00:06:56;;;;;;;;;;;2.00;99.90;;;;;;5014680;28;19929;-72
2023/01/28 00:09:22;;;;;;;;;;;2.00;99.90;;;;;;5007682;28;19921;-72
2023/01/28 00:11:48;;;;;;;;;;;2.00;99.90;;;;;;5012372;28;19922;-72
2023/01/28 00:14:13;;;;;;;;;;;2.00;99.90;;;;;;5012671;28;19921;-72
2023/01/28 00:16:39;;;;;;;;;;;2.00;99.90;;;;;;5011003;28;19922;-72
2023/01/28 00:19:04;;;;;;;;;;;2.00;99.90;;;;;;5011101;28;20495;-73
2023/01/28 00:21:30;;;;;;;;;;;2.00;99.90;;;;;;5014706;28;19921;-73
2023/01/28 00:23:56;;;;;;;;;;;2.00;99.90;;;;;;5027101;28;20079;-72
2023/01/28 00:26:22;;;;;;;;;;;2.00;99.90;;;;;;5011058;28;19983;-72
2023/01/28 00:28:48;;;;;;;;;;;2.00;99.90;;;;;;5011575;28;19979;-73
2023/01/28 00:31:13;;;;;;;;;;;2.00;99.90;;;;;;5011886;28;19929;-73
2023/01/28 00:33:39;;;;;;;;;;;2.10;99.90;;;;;;5010501;28;20386;-72
2023/01/28 00:36:05;;;;;;;;;;;2.20;99.90;;;;;;5013073;28;19921;-72
2023/01/28 00:38:31;;;;;;;;;;;2.20;99.90;;;;;;5012191;28;19921;-72
2023/01/28 00:41:05;;;;;;;;;;;2.20;99.90;;;;;;5013285;28;19943;-72
2023/01/28 00:43:31;;;;;;;;;;;2.10;99.90;;;;;;5009662;28;19921;-72
2023/01/28 00:45:56;;;;;;;;;;;2.20;99.90;;;;;;5011970;28;19922;-72
2023/01/28 00:48:22;;;;;;;;;;;2.10;99.90;;;;;;5013336;28;19925;-73
2023/01/28 00:50:47;;;;;;;;;;;2.10;99.90;;;;;;5010762;28;20020;-72
2023/01/28 00:53:13;;;;;;;;;;;2.00;99.90;;;;;;5013932;28;19922;-73
2023/01/28 00:55:38;;;;;;;;;;;2.00;99.90;;;;;;5011416;28;19937;-72
2023/01/28 00:58:04;;;;;;;;;;;2.00;99.90;;;;;;5014226;28;19925;-72
2023/01/28 01:00:29;;;;;;;;;;;2.00;99.90;;;;;;5014030;28;19921;-72
2023/01/28 01:02:55;;;;;;;;;;;2.00;99.90;;;;;;5011813;28;19967;-72
2023/01/28 01:05:20;;;;;;;;;;;2.00;99.90;;;;;;5018695;28;20000;-72
2023/01/28 01:07:46;;;;;;;;;;;2.00;99.90;;;;;;5010905;28;19922;-72
2023/01/28 01:10:13;;;;;;;;;;;1.90;99.90;;;;;;5009415;28;19929;-73
2023/01/28 01:12:39;;;;;;;;;;;2.00;99.90;;;;;;4993220;28;19925;-72
2023/01/28 01:15:07;;;;;;;;;;;2.00;99.90;;;;;;5012471;28;19936;-72
2023/01/28 01:17:33;;;;;;;;;;;2.00;99.90;;;;;;5012357;28;19921;-71
2023/01/28 01:19:59;;;;;;;;;;;2.00;99.90;;;;;;5015601;28;19925;-72
2023/01/28 01:22:24;;;;;;;;;;;2.10;99.90;;;;;;5011920;28;20413;-73
2023/01/28 01:24:50;;;;;;;;;;;2.10;99.90;;;;;;5011750;28;20388;-73
2023/01/28 01:27:15;;;;;;;;;;;2.00;99.90;;;;;;5016580;28;20375;-73
2023/01/28 01:29:41;;;;;;;;;;;2.00;99.90;;;;;;5016704;28;19930;-71
2023/01/28 01:32:06;;;;;;;;;;;2.00;99.90;;;;;;5013342;28;19922;-72
2023/01/28 01:34:32;;;;;;;;;;;2.00;99.90;;;;;;5009897;28;19933;-72
2023/01/28 01:36:58;;;;;;;;;;;2.00;99.90;;;;;;5009534;28;19932;-73
2023/01/28 01:39:23;;;;;;;;;;;2.00;99.90;;;;;;5010299;28;19960;-72
2023/01/28 01:41:49;;;;;;;;;;;2.10;99.90;;;;;;5012210;28;19928;-72
2023/01/28 01:44:33;;;;;;;;;;;2.10;99.90;;;;;;5007529;28;19921;-72
2023/01/28 01:46:58;;;;;;;;;;;2.10;99.90;;;;;;5011772;28;20333;-72
2023/01/28 01:49:25;;;;;;;;;;;2.10;99.90;;;;;;5013923;28;19927;-73
2023/01/28 01:52:00;;;;;;;;;;;2.00;99.90;;;;;;5013617;28;20267;-73
2023/01/28 01:54:28;;;;;;;;;;;2.00;99.90;;;;;;5013573;28;19921;-72
2023/01/28 01:56:54;;;;;;;;;;;2.00;99.90;;;;;;5013007;28;20008;-73
2023/01/28 01:59:23;;;;;;;;;;;2.10;99.90;;;;;;5012211;28;20028;-73
2023/01/28 02:01:49;;;;;;;;;;;2.00;99.90;;;;;;5012588;28;19997;-72
2023/01/28 02:04:19;;;;;;;;;;;2.00;99.90;;;;;;5026828;28;19921;-72
2023/01/28 02:06:44;;;;;;;;;;;2.70;99.90;;;;;;5011656;28;20344;-71
2023/01/28 02:09:24;;;;;;;;;;;2.00;99.90;;;;;;5012604;28;20004;-73
2023/01/28 02:11:50;;;;;;;;;;;1.90;99.90;;;;;;5010936;28;19944;-72
2023/01/28 02:14:16;;;;;;;;;;;2.10;99.90;;;;;;5012513;28;20351;-72
2023/01/28 02:16:42;;;;;;;;;;;2.00;99.90;;;;;;5012980;28;19921;-72
2023/01/28 02:19:08;;;;;;;;;;;2.00;99.90;;;;;;5011386;28;20063;-73
2023/01/28 02:21:34;;;;;;;;;;;2.00;99.90;;;;;;5012204;28;19928;-73
2023/01/28 02:24:16;;;;;;;;;;;2.00;99.90;;;;;;5012054;28;19921;-72
2023/01/28 02:27:00;;;;;;;;;;;2.00;99.90;;;;;;5010614;28;20400;-71
2023/01/28 02:29:28;;;;;;;;;;;2.00;99.90;;;;;;5011083;28;19921;-72
2023/01/28 02:32:02;;;;;;;;;;;2.00;99.90;;;;;;5013241;28;19940;-72
2023/01/28 02:34:34;;;;;;;;;;;1.90;99.90;;;;;;5010014;28;19921;-71
2023/01/28 02:37:13;;;;;;;;;;;2.00;99.90;;;;;;5011834;28;19984;-72
2023/01/28 02:39:41;;;;;;;;;;;2.00;99.90;;;;;;5008386;28;19929;-72
2023/01/28 02:42:13;;;;;;;;;;;2.00;99.90;;;;;;5009916;28;19929;-71
2023/01/28 02:44:39;;;;;;;;;;;2.00;99.90;;;;;;5012617;28;19922;-72
2023/01/28 02:49:57;;;;;;;;;;;1.90;99.90;;;;;;5014461;28;19922;-71
2023/01/28 02:55:34;;;;;;;;;;;2.00;99.90;;;;;;5011918;28;19973;-71
2023/01/28 02:58:05;;;;;;;;;;;2.00;99.90;;;;;;5011091;28;19917;-71
2023/01/28 03:00:49;;;;;;;;;;;2.00;99.90;;;;;;5011663;28;20021;-72
2023/01/28 03:03:21;;;;;;;;;;;2.00;99.90;;;;;;5011459;28;19921;-72
2023/01/28 03:06:07;;;;;;;;;;;2.00;99.90;;;;;;5018978;28;20526;-72
2023/01/28 03:39:10;;;;;;;;;;;2.00;99.90;;;;;;5013712;28;19987;-72
2023/01/28 03:41:35;;;;;;;;;;;2.00;99.90;;;;;;5012456;28;19925;-72
2023/01/28 03:46:45;;;;;;;;;;;2.00;99.90;;;;;;5012992;28;19924;-72
2023/01/28 03:49:10;;;;;;;;;;;2.00;99.90;;;;;;5012409;28;20348;-72
2023/01/28 03:51:36;;;;;;;;;;;2.00;99.90;;;;;;5010616;28;19925;-72
2023/01/28 03:54:01;;;;;;;;;;;2.00;99.90;;;;;;5012711;28;19922;-73
2023/01/28 03:56:31;;;;;;;;;;;2.00;99.90;;;;;;5012006;28;19987;-72
2023/01/28 03:58:56;;;;;;;;;;;2.00;99.90;;;;;;5014013;28;19937;-72
2023/01/28 04:01:23;;;;;;;;;;;2.00;99.90;;;;;;5013708;28;19922;-72
2023/01/28 04:03:48;;;;;;;;;;;2.00;99.90;;;;;;5011037;28;20078;-72
2023/01/28 04:06:14;;;;;;;;;;;2.00;99.90;;;;;;5009684;28;19929;-72
2023/01/28 04:08:44;;;;;;;;;;;2.00;99.90;;;;;;5012211;28;20030;-73
2023/01/28 04:11:18;;;;;;;;;;;2.00;99.90;;;;;;5011896;28;19917;-72
2023/01/28 04:13:44;;;;;;;;;;;2.00;99.90;;;;;;5010547;28;19979;-73
2023/01/28 04:16:10;;;;;;;;;;;2.00;99.90;;;;;;5011965;28;20055;-72
2023/01/28 04:18:36;;;;;;;;;;;2.00;99.90;;;;;;5012688;28;19922;-72
2023/01/28 04:21:01;;;;;;;;;;;2.00;99.90;;;;;;5009758;28;20386;-72
2023/01/28 04:23:28;;;;;;;;;;;2.00;99.90;;;;;;5011427;28;19921;-73
2023/01/28 04:25:54;;;;;;;;;;;2.00;99.90;;;;;;5010546;28;19925;-72
2023/01/28 04:28:20;;;;;;;;;;;2.00;99.90;;;;;;5014658;28;20032;-72
2023/01/28 04:30:45;;;;;;;;;;;2.00;99.90;;;;;;5011257;28;19925;-73
2023/01/28 04:33:11;;;;;;;;;;;2.00;99.90;;;;;;5013568;28;20007;-73
2023/01/28 04:35:37;;;;;;;;;;;2.00;99.90;;;;;;5011828;28;19925;-72
2023/01/28 04:38:02;;;;;;;;;;;2.00;99.90;;;;;;5012501;28;19928;-72
2023/01/28 04:40:28;;;;;;;;;;;2.00;99.90;;;;;;5013404;28;19929;-72
2023/01/28 04:42:54;;;;;;;;;;;2.00;99.90;;;;;;5011037;28;20329;-72
2023/01/28 04:45:20;;;;;;;;;;;1.50;99.90;;;;;;5010750;28;20377;-72
2023/01/28 04:47:45;;;;;;;;;;;2.00;99.90;;;;;;5010905;28;19929;-72
2023/01/28 04:50:11;;;;;;;;;;;2.00;99.90;;;;;;5011606;28;20287;-72
2023/01/28 04:52:37;;;;;;;;;;;2.00;99.90;;;;;;5012281;28;20040;-72
2023/01/28 04:55:02;;;;;;;;;;;2.70;99.90;;;;;;5012183;28;19921;-72
2023/01/28 04:57:28;;;;;;;;;;;2.00;99.90;;;;;;5011306;28;20267;-72
2023/01/28 04:59:53;;;;;;;;;;;2.40;99.90;;;;;;5009878;28;20016;-72
2023/01/28 05:02:19;;;;;;;;;;;2.00;99.90;;;;;;5013532;28;20369;-73
2023/01/28 05:04:44;;;;;;;;;;;2.00;99.90;;;;;;5010834;28;20294;-73
2023/01/28 05:07:10;;;;;;;;;;;2.00;99.90;;;;;;5012861;28;20381;-73
2023/01/28 05:09:36;;;;;;;;;;;2.00;99.90;;;;;;5011180;28;19968;-73
2023/01/28 05:12:01;;;;;;;;;;;2.00;99.90;;;;;;5012879;28;19922;-73
2023/01/28 05:14:27;;;;;;;;;;;2.00;99.90;;;;;;5013371;28;19930;-73
2023/01/28 05:16:52;;;;;;;;;;;2.00;99.90;;;;;;5014083;28;20264;-73
2023/01/28 05:19:18;;;;;;;;;;;2.00;99.90;;;;;;5012386;28;20059;-72
2023/01/28 05:21:43;;;;;;;;;;;1.90;99.90;;;;;;5011485;28;19922;-72
2023/01/28 05:24:09;;;;;;;;;;;2.00;99.90;;;;;;5013379;28;19921;-72
2023/01/28 05:26:36;;;;;;;;;;;1.90;99.90;;;;;;5012376;28;20250;-72
2023/01/28 05:29:01;;;;;;;;;;;2.00;99.90;;;;;;5005542;28;19921;-72
2023/01/28 05:31:27;;;;;;;;;;;1.90;99.90;;;;;;5009804;28;20268;-72
2023/01/28 05:33:52;;;;;;;;;;;1.90;99.90;;;;;;5009874;28;19976;-72
2023/01/28 05:36:18;;;;;;;;;;;1.90;99.90;;;;;;5010932;28;19925;-72
2023/01/28 05:38:44;;;;;;;;;;;1.90;99.90;;;;;;5008592;28;20298;-72
2023/01/28 05:41:09;;;;;;;;;;;1.90;99.90;;;;;;5011633;28;19928;-72
2023/01/28 05:43:35;;;;;;;;;;;1.90;99.90;;;;;;5009796;28;20012;-72
2023/01/28 05:46:00;;;;;;;;;;;1.90;99.90;;;;;;5011481;28;19921;-72
2023/01/28 05:48:26;;;;;;;;;;;1.90;99.90;;;;;;5008842;28;19925;-72
2023/01/28 05:50:51;;;;;;;;;;;1.90;99.90;;;;;;5010202;28;19921;-72
2023/01/28 05:53:17;;;;;;;;;;;1.90;99.90;;;;;;5012255;28;19921;-71
2023/01/28 05:55:42;;;;;;;;;;;2.00;99.90;;;;;;5012006;28;19921;-72
2023/01/28 05:58:08;;;;;;;;;;;1.90;99.90;;;;;;5010496;28;20378;-72
2023/01/28 06:00:33;;;;;;;;;;;2.00;99.90;;;;;;5011241;28;19926;-72
2023/01/28 06:02:59;;;;;;;;;;;2.00;99.90;;;;;;5012088;28;19921;-72
2023/01/28 06:05:24;;;;;;;;;;;2.00;99.90;;;;;;5010962;28;19921;-72
2023/01/28 06:07:50;;;;;;;;;;;2.00;99.90;;;;;;5011564;28;19928;-72
2023/01/28 06:10:18;;;;;;;;;;;2.00;99.90;;;;;;5011976;28;19921;-72
2023/01/28 06:12:44;;;;;;;;;;;2.00;99.90;;;;;;5011991;28;19921;-72
2023/01/28 06:15:10;;;;;;;;;;;2.00;99.90;;;;;;5010986;28;19928;-71
2023/01/28 06:17:35;;;;;;;;;;;1.90;99.90;;;;;;5013562;28;19921;-71
2023/01/28 06:20:01;;;;;;;;;;;1.90;99.90;;;;;;5011675;28;19921;-71
2023/01/28 06:22:26;;;;;;;;;;;1.90;99.90;;;;;;5010770;28;19922;-71
2023/01/28 06:24:52;;;;;;;;;;;1.90;99.90;;;;;;5012346;28;19967;-72
2023/01/28 06:27:17;;;;;;;;;;;1.90;99.90;;;;;;5012935;28;20353;-72
2023/01/28 06:29:43;;;;;;;;;;;1.90;99.90;;;;;;5012720;28;19968;-71
2023/01/28 06:32:08;;;;;;;;;;;1.90;99.90;;;;;;5012217;28;19922;-72
2023/01/28 06:34:34;;;;;;;;;;;1.90;99.90;;;;;;5007603;28;20004;-71
2023/01/28 06:36:59;;;;;;;;;;;1.90;99.90;;;;;;5008727;28;19921;-72
2023/01/28 06:39:27;;;;;;;;;;;1.90;99.90;;;;;;5010331;28;19921;-72
2023/01/28 06:41:52;;;;;;;;;;;1.90;99.90;;;;;;5009994;28;20366;-71
2023/01/28 06:44:18;;;;;;;;;;;1.90;99.90;;;;;;5009158;28;19944;-72
2023/01/28 06:46:43;;;;;;;;;;;1.90;99.90;;;;;;5010021;28;19921;-72
2023/01/28 06:49:09;;;;;;;;;;;1.80;99.90;;;;;;5009288;28;19931;-71
2023/01/28 06:51:34;;;;;;;;;;;1.80;99.90;;;;;;5008600;28;19925;-71
2023/01/28 06:54:00;;;;;;;;;;;1.80;99.90;;;;;;5011395;28;19921;-72
2023/01/28 06:56:25;;;;;;;;;;;1.80;99.90;;;;;;5011238;28;19989;-72
2023/01/28 06:58:51;;;;;;;;;;;1.70;99.90;;;;;;5005920;28;20376;-71
2023/01/28 07:01:16;;;;;;;;;;;1.70;99.90;;;;;;5008069;28;19921;-71
2023/01/28 07:03:42;;;;;;;;;;;1.70;99.90;;;;;;5010722;28;20024;-71
2023/01/28 07:06:07;;;;;;;;;;;1.70;99.90;;;;;;5008069;28;19922;-71
2023/01/28 07:08:33;;;;;;;;;;;1.70;99.90;;;;;;5008747;28;20425;-71
2023/01/28 07:10:59;;;;;;;;;;;1.90;99.90;;;;;;5024012;28;19944;-71
2023/01/28 07:13:25;;;;;;;;;;;1.70;99.90;;;;;;5012047;28;19921;-70
2023/01/28 07:15:50;;;;;;;;;;;1.70;99.90;;;;;;5013407;28;20454;-71
2023/01/28 07:18:16;;;;;;;;;;;1.70;99.90;;;;;;5014366;28;19922;-72
2023/01/28 07:20:41;;;;;;;;;;;1.70;99.90;;;;;;4995234;28;19921;-72
2023/01/28 07:23:07;;;;;;;;;;;1.70;99.90;;;;;;5011760;28;19921;-70
2023/01/28 07:25:32;;;;;;;;;;;1.60;99.90;;;;;;5013314;28;19989;-69
2023/01/28 07:27:58;;;;;;;;;;;1.70;99.90;;;;;;5014199;28;19944;-69
2023/01/28 07:30:24;;;;;;;;;;;1.50;99.90;;;;;;5010554;28;21317;-71
2023/01/28 07:32:56;;;;;;;;;;;1.40;99.90;;;;;;5012175;28;19926;-72
2023/01/28 07:35:22;;;;;;;;;;;1.30;99.90;;;;;;5002054;28;19921;-70
2023/01/28 07:37:51;;;;;;;;;;;1.30;99.90;;;;;;5007970;28;19944;-72
2023/01/28 07:40:17;;;;;;;;;;;1.20;99.90;;;;;;5009615;28;20005;-72
2023/01/28 07:42:42;;;;;;;;;;;1.20;99.90;;;;;;4992542;28;20020;-71
2023/01/28 07:45:08;;;;;;;;;;;1.20;99.90;;;;;;5009963;28;19925;-71
2023/01/28 07:47:34;;;;;;;;;;;1.10;99.90;;;;;;5010721;28;19925;-71
2023/01/28 07:49:59;;;;;;;;;;;1.10;99.90;;;;;;5012039;28;19976;-72
2023/01/28 07:52:25;;;;;;;;;;;1.10;99.90;;;;;;5010357;28;19930;-72
2023/01/28 07:54:50;;;;;;;;;;;1.10;99.90;;;;;;5012077;28;19921;-71
2023/01/28 07:57:22;;;;;;;;;;;1.10;99.90;;;;;;5009735;28;19944;-71
2023/01/28 07:59:50;;;;;;;;;;;1.00;99.90;;;;;;5005887;28;19929;-72
2023/01/28 08:02:17;;;;;;;;;;;1.00;99.90;;;;;;5002801;28;19928;-71
2023/01/28 08:04:42;;;;;;;;;;;1.00;99.90;;;;;;5007455;28;19921;-72
2023/01/28 08:07:08;;;;;;;;;;;1.00;99.90;;;;;;5012166;28;20259;-72
2023/01/28 08:09:34;;;;;;;;;;;1.00;99.90;;;;;;5012735;28;20048;-71
2023/01/28 08:12:02;;;;;;;;;;;1.10;99.90;;;;;;5014349;28;19922;-72
2023/01/28 08:14:28;;;;;;;;;;;1.10;99.90;;;;;;5011698;28;19975;-72
2023/01/28 08:16:53;;;;;;;;;;;1.10;99.90;;;;;;5013996;28;20378;-72
2023/01/28 08:19:20;;;;;;;;;;;1.10;99.90;;;;;;5012684;28;19948;-72
2023/01/28 08:21:46;;;;;;;;;;;1.20;99.90;;;;;;5015483;28;20317;-72
2023/01/28 08:24:12;;;;;;;;;;;1.20;99.90;;;;;;5012728;28;19921;-72
2023/01/28 08:26:37;;;;;;;;;;;1.30;99.90;;;;;;5014851;28;19988;-72
2023/01/28 08:29:03;;;;;;;;;;;1.50;99.90;;;;;;5017481;28;19922;-71
2023/01/28 08:31:28;;;;;;;;;;;1.80;99.90;;;;;;5016944;28;19921;-71
2023/01/28 08:33:54;;;;;;;;;;;1.90;99.90;;;;;;5021331;28;19929;-73
2023/01/28 08:36:19;;;;;;;;;;;2.00;99.90;;;;;;5021668;28;20390;-71
2023/01/28 08:38:45;;;;;;;;;;;2.00;99.90;;;;;;5006156;28;19944;-71
2023/01/28 08:41:10;;;;;;;;;;;2.10;99.90;;;;;;5021600;28;20259;-72
2023/01/28 08:43:36;;;;;;;;;;;2.20;99.90;;;;;;5015837;28;19921;-71
2023/01/28 08:46:04;;;;;;;;;;;2.00;99.90;;;;;;5015210;28;19921;-71
2023/01/28 08:48:29;;;;;;;;;;;1.90;99.90;;;;;;5014734;28;19972;-71
2023/01/28 08:50:57;;;;;;;;;;;2.10;99.90;;;;;;5017213;28;19965;-72
2023/01/28 08:53:22;;;;;;;;;;;1.90;99.90;;;;;;5019017;28;19922;-71
2023/01/28 08:55:48;;;;;;;;;;;1.80;99.90;;;;;;5015852;28;19921;-71
2023/01/28 08:58:14;;;;;;;;;;;1.90;99.90;;;;;;5014523;28;20015;-71
2023/01/28 09:00:40;;;;;;;;;;;1.90;99.90;;;;;;5015522;28;19921;-71
2023/01/28 09:03:06;;;;;;;;;;;2.00;99.90;;;;;;5019698;28;19931;-71
2023/01/28 09:05:33;;;;;;;;;;;2.10;99.90;;;;;;5016845;28;19968;-71
2023/01/28 09:08:02;;;;;;;;;;;2.20;99.90;;;;;;5014979;28;20023;-72
2023/01/28 09:10:27;;;;;;;;;;;2.30;99.90;;;;;;5015946;28;19921;-71
2023/01/28 09:12:53;;;;;;;;;;;2.50;99.90;;;;;;5015300;28;20243;-71
2023/01/28 09:15:18;;;;;;;;;;;2.60;99.90;;;;;;5015085;28;19921;-72
2023/01/28 09:17:44;;;;;;;;;;;2.60;99.90;;;;;;5017149;28;19972;-70
2023/01/28 09:20:11;;;;;;;;;;;2.40;99.90;;;;;;5010772;28;20267;-72
2023/01/28 09:22:36;;;;;;;;;;;2.80;99.90;;;;;;5010692;28;19929;-72
2023/01/28 09:25:02;;;;;;;;;;;2.90;99.90;;;;;;5028869;28;19922;-74
2023/01/28 09:27:27;;;;;;;;;;;3.10;99.90;;;;;;5013759;28;20406;-71
2023/01/28 09:29:53;;;;;;;;;;;3.30;99.90;;;;;;5013067;28;19921;-72
2023/01/28 09:32:18;;;;;;;;;;;3.50;99.90;;;;;;5011286;28;19921;-72
2023/01/28 09:34:44;;;;;;;;;;;3.70;99.90;;;;;;5013134;28;20351;-71
2023/01/28 09:37:10;;;;;;;;;;;4.00;99.90;;;;;;5014561;28;20374;-72
2023/01/28 09:39:36;;;;;;;;;;;4.30;99.90;;;;;;5013086;28;19929;-72
2023/01/28 09:42:40;;;;;;;;;;;4.60;99.90;;;;;;5013875;28;19929;-75
2023/01/28 09:45:11;;;;;;;;;;;4.50;99.90;;;;;;4963887;28;19930;-72
2023/01/28 09:47:47;;;;;;;;;;;4.50;99.90;;;;;;4960098;28;19984;-72
2023/01/28 09:50:21;;;;;;;;;;;4.40;99.90;;;;;;4997304;28;20037;-72
2023/01/28 09:52:47;;;;;;;;;;;4.40;99.90;;;;;;5014271;28;19928;-71
2023/01/28 09:55:16;;;;;;;;;;;4.30;99.90;;;;;;5014148;28;19925;-70
2023/01/28 09:57:44;;;;;;;;;;;4.30;99.90;;;;;;5015537;28;19928;-71
2023/01/28 10:00:13;;;;;;;;;;;4.20;99.90;;;;;;5013923;28;20327;-71
2023/01/28 10:02:45;;;;;;;;;;;4.20;99.90;;;;;;5013570;28;20024;-71
2023/01/28 10:05:16;;;;;;;;;;;4.20;99.90;;;;;;5013144;28;20431;-70
2023/01/28 10:07:51;;;;;;;;;;;4.40;99.90;;;;;;5013596;28;19967;-71
2023/01/28 10:10:20;;;;;;;;;;;4.40;99.90;;;;;;5011879;28;19917;-71
2023/01/28 10:12:59;;;;;;;;;;;4.50;99.90;;;;;;5010770;28;20016;-71
2023/01/28 10:15:24;;;;;;;;;;;4.50;99.90;;;;;;5012711;28;19975;-71
2023/01/28 10:17:52;;;;;;;;;;;4.60;99.90;;;;;;5018444;28;19925;-71
2023/01/28 10:20:24;;;;;;;;;;;4.70;99.90;;;;;;5013808;28;20336;-72
2023/01/28 10:22:50;;;;;;;;;;;4.90;99.90;;;;;;5012524;28;19996;-70
2023/01/28 10:25:20;;;;;;;;;;;5.60;99.90;;;;;;5009182;28;20023;-71
2023/01/28 10:27:46;;;;;;;;;;;6.10;99.90;;;;;;5013819;28;19937;-71
2023/01/28 10:30:17;;;;;;;;;;;6.70;99.90;;;;;;5011181;28;20409;-71
2023/01/28 10:32:45;;;;;;;;;;;7.30;99.90;;;;;;5010875;28;19921;-72
2023/01/28 10:35:11;;;;;;;;;;;7.90;99.90;;;;;;5010110;28;19921;-72
2023/01/28 10:37:38;;;;;;;;;;;7.90;99.90;;;;;;5009217;28;20329;-72
2023/01/28 10:40:04;;;;;;;;;;;7.70;99.90;;;;;;5009087;28;19964;-72
2023/01/28 10:42:31;;;;;;;;;;;7.40;99.90;;;;;;5011517;28;19964;-70
2023/01/28 10:45:15;;;;;;;;;;;7.20;99.90;;;;;;5012275;28;19921;-71
2023/01/28 10:47:47;;;;;;;;;;;7.00;99.90;;;;;;4997707;28;20351;-72
2023/01/28 10:50:15;;;;;;;;;;;6.60;99.90;;;;;;5010358;28;20013;-72
2023/01/28 10:52:53;;;;;;;;;;;6.40;99.90;;;;;;5012125;28;19923;-72
2023/01/28 10:55:20;;;;;;;;;;;6.20;99.90;;;;;;5008382;28;19921;-72
2023/01/28 10:57:45;;;;;;;;;;;6.10;99.90;;;;;;5010227;28;19922;-72
2023/01/28 11:00:25;;;;;;;;;;;6.00;99.90;;;;;;5011944;28;19933;-72
2023/01/28 11:02:50;;;;;;;;;;;6.00;99.90;;;;;;5007377;28;20052;-71
2023/01/28 11:05:34;;;;;;;;;;;6.00;99.90;;;;;;5009422;28;20004;-71
2023/01/28 11:08:13;;;;;;;;;;;5.90;99.90;;;;;;5006698;28;19927;-71
2023/01/28 11:10:39;;;;;;;;;;;5.90;99.90;;;;;;5009167;28;19917;-71
2023/01/28 11:13:05;;;;;;;;;;;5.90;99.90;;;;;;5011784;28;20000;-71
2023/01/28 11:15:31;;;;;;;;;;;5.90;99.90;;;;;;5010726;28;20493;-71
2023/01/28 11:18:01;;;;;;;;;;;5.80;99.90;;;;;;5010323;28;19921;-71
2023/01/28 11:20:28;;;;;;;;;;;5.70;99.90;;;;;;5012466;28;20024;-71
2023/01/28 11:22:54;;;;;;;;;;;5.70;99.90;;;;;;5008951;28;20643;-71
2023/01/28 11:25:28;;;;;;;;;;;5.80;99.90;;;;;;5010698;28;19922;-71
2023/01/28 11:27:54;;;;;;;;;;;5.70;99.90;;;;;;5011525;28;20334;-71
2023/01/28 11:30:23;;;;;;;;;;;6.50;99.90;;;;;;5011960;28;19921;-72
2023/01/28 11:32:56;;;;;;;;;;;5.60;99.90;;;;;;5009731;28;20017;-71
2023/01/28 11:35:27;;;;;;;;;;;5.60;99.90;;;;;;5009108;28;20341;-71
2023/01/28 11:37:53;;;;;;;;;;;5.60;99.90;;;;;;5023048;28;19929;-72
2023/01/28 11:40:21;;;;;;;;;;;5.60;99.90;;;;;;5016815;28;20016;-71
2023/01/28 11:42:47;;;;;;;;;;;5.60;99.90;;;;;;5017914;28;20301;-71
2023/01/28 11:45:17;;;;;;;;;;;5.60;99.90;;;;;;5015545;28;19921;-71
2023/01/28 11:47:48;;;;;;;;;;;5.70;99.90;;;;;;5013952;28;20302;-72
2023/01/28 11:50:28;;;;;;;;;;;5.70;99.90;;;;;;5012635;28;19922;-72
2023/01/28 11:52:57;;;;;;;;;;;5.70;99.90;;;;;;5011488;28;19922;-71
2023/01/28 11:55:28;;;;;;;;;;;5.80;99.90;;;;;;5014408;28;19953;-72
2023/01/28 11:58:12;;;;;;;;;;;5.70;99.90;;;;;;5014048;28;19928;-71
2023/01/28 12:00:44;;;;;;;;;;;5.70;99.90;;;;;;5016004;28;19964;-72
2023/01/28 12:03:19;;;;;;;;;;;5.70;99.90;;;;;;5008498;28;19936;-70
2023/01/28 12:05:48;;;;;;;;;;;5.70;99.90;;;;;;4994281;28;19933;-72
2023/01/28 12:08:19;;;;;;;;;;;5.70;99.90;;;;;;5007861;28;20227;-70
2023/01/28 12:10:51;;;;;;;;;;;5.60;99.90;;;;;;5010955;28;19917;-71
2023/01/28 12:13:24;;;;;;;;;;;5.50;99.90;;;;;;5011499;28;19943;-72
2023/01/28 12:15:56;;;;;;;;;;;5.00;99.90;;;;;;5014038;28;19928;-71
2023/01/28 12:18:22;;;;;;;;;;;5.30;99.90;;;;;;5014841;28;19975;-70
2023/01/28 12:20:51;;;;;;;;;;;5.30;99.90;;;;;;5015440;28;19921;-71
2023/01/28 12:23:31;;;;;;;;;;;5.30;99.90;;;;;;5010520;28;20013;-71
2023/01/28 12:26:15;;;;;;;;;;;5.30;99.90;;;;;;5011902;28;19928;-72
2023/01/28 12:28:43;;;;;;;;;;;5.30;99.90;;;;;;5014040;28;20297;-71
2023/01/28 12:31:27;;;;;;;;;;;5.20;99.90;;;;;;5013846;28;19921;-71
2023/01/28 12:33:52;;;;;;;;;;;5.10;99.90;;;;;;5020917;28;20290;-71
2023/01/28 12:36:24;;;;;;;;;;;5.00;99.90;;;;;;5012014;28;19925;-71
2023/01/28 12:39:07;;;;;;;;;;;4.90;99.90;;;;;;5003027;28;19936;-71
2023/01/28 12:41:40;;;;;;;;;;;4.80;99.90;;;;;;5014696;28;19973;-71
2023/01/28 12:44:10;;;;;;;;;;;4.80;99.90;;;;;;5012505;28;20554;-71
2023/01/28 12:46:35;;;;;;;;;;;4.70;99.90;;;;;;5011247;28;19922;-72
2023/01/28 12:49:07;;;;;;;;;;;4.70;99.90;;;;;;5012169;28;19921;-71
2023/01/28 12:51:33;;;;;;;;;;;4.60;99.90;;;;;;4994411;28;19921;-71
2023/01/28 12:54:11;;;;;;;;;;;4.70;99.90;;;;;;5013501;28;19937;-71
2023/01/28 12:56:39;;;;;;;;;;;4.60;99.90;;;;;;5012954;28;19928;-72
2023/01/28 12:59:11;;;;;;;;;;;4.60;99.90;;;;;;5013240;28;20282;-72
2023/01/28 13:01:46;;;;;;;;;;;4.60;99.90;;;;;;5011461;28;19921;-71
2023/01/28 13:04:47;;;;;;;;;;;4.60;99.90;;;;;;5012956;28;19921;-71
2023/01/28 13:07:12;;;;;;;;;;;4.60;99.90;;;;;;4992425;28;19925;-71
2023/01/28 13:09:48;;;;;;;;;;;4.80;99.90;;;;;;5000951;28;20008;-72
2023/01/28 13:12:14;;;;;;;;;;;5.00;99.90;;;;;;5005714;28;19928;-70
2023/01/28 13:14:40;;;;;;;;;;;5.10;99.90;;;;;;5009911;28;19930;-70
2023/01/28 13:17:10;;;;;;;;;;;5.20;99.90;;;;;;5010914;28;20279;-70
2023/01/28 13:19:36;;;;;;;;;;;5.30;99.90;;;;;;5009810;28;19921;-70
2023/01/28 13:22:21;;;;;;;;;;;5.40;99.90;;;;;;5010895;28;19982;-70
2023/01/28 13:24:46;;;;;;;;;;;5.40;99.90;;;;;;5007325;28;19929;-71
2023/01/28 13:27:13;;;;;;;;;;;5.50;99.90;;;;;;5008846;28;19921;-71
2023/01/28 13:29:38;;;;;;;;;;;5.60;99.90;;;;;;5009867;28;19921;-71
2023/01/28 13:32:24;;;;;;;;;;;5.60;99.90;;;;;;5009100;28;19933;-70
2023/01/28 13:34:56;;;;;;;;;;;5.60;99.90;;;;;;5011186;28;20392;-70
2023/01/28 13:37:21;;;;;;;;;;;5.60;99.90;;;;;;5006208;28;19921;-70
2023/01/28 13:39:51;;;;;;;;;;;5.60;99.90;;;;;;5009494;28;20527;-71
2023/01/28 13:42:20;;;;;;;;;;;5.60;99.90;;;;;;5010659;28;19929;-70
2023/01/28 13:44:46;;;;;;;;;;;5.60;99.90;;;;;;5024866;28;19922;-71
2023/01/28 13:47:27;;;;;;;;;;;5.60;99.90;;;;;;5003166;28;20380;-71
2023/01/28 13:49:57;;;;;;;;;;;5.60;99.90;;;;;;5026056;28;19928;-70
2023/01/28 13:52:25;;;;;;;;;;;5.60;99.90;;;;;;5013616;28;19998;-71
2023/01/28 13:54:53;;;;;;;;;;;5.60;99.90;;;;;;5009209;28;20354;-70
2023/01/28 13:57:31;;;;;;;;;;;5.60;99.90;;;;;;5007613;28;20012;-71
2023/01/28 14:00:17;;;;;;;;;;;5.50;99.90;;;;;;5011664;28;19929;-71
2023/01/28 14:02:55;;;;;;;;;;;5.60;99.90;;;;;;5007406;28;19983;-71
2023/01/28 14:05:21;;;;;;;;;;;5.60;99.90;;;;;;5009959;28;19925;-71
2023/01/28 14:07:55;;;;;;;;;;;5.60;99.90;;;;;;5010373;28;20016;-72
2023/01/28 14:10:21;;;;;;;;;;;5.60;99.90;;;;;;5010763;28;19975;-70
2023/01/28 14:12:59;;;;;;;;;;;5.70;99.90;;;;;;5008703;28;20290;-71
2023/01/28 14:15:36;;;;;;;;;;;5.70;99.90;;;;;;5005360;28;19925;-71
2023/01/28 14:18:05;;;;;;;;;;;5.60;99.90;;;;;;5006866;28;20422;-71
2023/01/28 14:20:36;;;;;;;;;;;5.50;99.90;;;;;;5002536;28;19921;-71
2023/01/28 14:23:05;;;;;;;;;;;5.50;99.90;;;;;;5007304;28;19922;-71
2023/01/28 14:25:38;;;;;;;;;;;5.50;99.90;;;;;;5011958;28;19921;-70
2023/01/28 14:28:05;;;;;;;;;;;5.40;99.90;;;;;;5010376;28;20192;-71
2023/01/28 14:30:42;;;;;;;;;;;5.40;99.90;;;;;;5010286;28;19983;-71
2023/01/28 14:33:09;;;;;;;;;;;5.30;99.90;;;;;;5009185;28;19921;-71
2023/01/28 14:35:37;;;;;;;;;;;5.30;99.90;;;;;;5005544;28;20291;-71
2023/01/28 14:38:07;;;;;;;;;;;5.30;99.90;;;;;;5006736;28;21097;-70
2023/01/28 14:40:34;;;;;;;;;;;5.30;99.90;;;;;;5008301;28;19964;-71
2023/01/28 14:43:00;;;;;;;;;;;5.30;99.90;;;;;;5006940;28;20331;-70
2023/01/28 14:45:44;;;;;;;;;;;5.20;99.90;;;;;;5009444;28;19925;-71
2023/01/28 14:48:30;;;;;;;;;;;5.30;99.90;;;;;;5008506;28;19925;-71
2023/01/28 14:51:15;;;;;;;;;;;5.20;99.90;;;;;;5008715;28;19928;-70
2023/01/28 14:53:47;;;;;;;;;;;5.20;99.90;;;;;;5007685;28;20333;-72
2023/01/28 14:56:24;;;;;;;;;;;5.20;99.90;;;;;;5003914;28;19928;-71
2023/01/28 14:58:56;;;;;;;;;;;5.10;99.90;;;;;;5009042;28;19921;-71
2023/01/28 15:01:23;;;;;;;;;;;5.10;99.90;;;;;;5006119;28;20425;-71
2023/01/28 15:03:49;;;;;;;;;;;5.10;99.90;;;;;;5009741;28;19925;-71
2023/01/28 15:06:15;;;;;;;;;;;5.10;99.90;;;;;;5008785;28;20619;-71
2023/01/28 15:08:41;;;;;;;;;;;5.10;99.90;;;;;;5006604;28;19922;-71
2023/01/28 15:11:09;;;;;;;;;;;5.10;99.90;;;;;;5005557;28;19922;-71
2023/01/28 15:13:37;;;;;;;;;;;5.10;99.90;;;;;;5006807;28;19925;-71
2023/01/28 15:16:03;;;;;;;;;;;5.10;99.90;;;;;;5007846;28;19926;-71
2023/01/28 15:18:31;;;;;;;;;;;5.00;99.90;;;;;;5008289;28;19921;-71